sensor_id;sensor_type;location;lat;lon;timestamp;temperature;humidity
4673;DHT22;61885;53.560;9.940;2023-06-10T00:00:37;15.70;80.90
4673;DHT22;61885;53.560;9.940;2023-06-10T00:03:07;15.70;80.70
4673;DHT22;61885;53.560;9.940;2023-06-10T00:05:38;15.80;80.60
4673;DHT22;61885;53.560;9.940;2023-06-10T00:08:07;15.80;80.50
4673;DHT22;61885;53.560;9.940;2023-06-10T00:10:38;15.80;80.20
4673;DHT22;61885;53.560;9.940;2023-06-10T00:13:10;15.70;80.40
4673;DHT22;61885;53.560;9.940;2023-06-10T00:15:40;15.70;80.50
4673;DHT22;61885;53.560;9.940;2023-06-10T00:18:09;15.60;80.70
4673;DHT22;61885;53.560;9.940;2023-06-10T00:20:39;15.60;80.70
4673;DHT22;61885;53.560;9.940;2023-06-10T00:23:09;15.50;80.80
4673;DHT22;61885;53.560;9.940;2023-06-10T00:25:38;15.50;80.70
4673;DHT22;61885;53.560;9.940;2023-06-10T00:28:10;15.40;81.30
4673;DHT22;61885;53.560;9.940;2023-06-10T00:30:42;15.30;81.50
4673;DHT22;61885;53.560;9.940;2023-06-10T00:33:11;15.30;81.60
4673;DHT22;61885;53.560;9.940;2023-06-10T00:35:41;15.30;81.40
4673;DHT22;61885;53.560;9.940;2023-06-10T00:38:12;15.30;81.00
4673;DHT22;61885;53.560;9.940;2023-06-10T00:40:42;15.10;81.30
4673;DHT22;61885;53.560;9.940;2023-06-10T00:43:15;15.10;81.20
4673;DHT22;61885;53.560;9.940;2023-06-10T00:45:45;15.00;81.10
4673;DHT22;61885;53.560;9.940;2023-06-10T00:48:14;14.90;81.10
4673;DHT22;61885;53.560;9.940;2023-06-10T00:50:44;14.70;81.30
4673;DHT22;61885;53.560;9.940;2023-06-10T00:53:14;14.90;81.10
4673;DHT22;61885;53.560;9.940;2023-06-10T00:55:44;14.80;80.90
4673;DHT22;61885;53.560;9.940;2023-06-10T00:58:16;14.90;81.00
4673;DHT22;61885;53.560;9.940;2023-06-10T01:00:45;14.90;80.60
4673;DHT22;61885;53.560;9.940;2023-06-10T01:03:16;14.90;80.50
4673;DHT22;61885;53.560;9.940;2023-06-10T01:05:49;15.00;80.30
4673;DHT22;61885;53.560;9.940;2023-06-10T01:08:28;14.80;80.30
4673;DHT22;61885;53.560;9.940;2023-06-10T01:11:04;14.80;80.60
4673;DHT22;61885;53.560;9.940;2023-06-10T01:13:40;14.70;81.00
4673;DHT22;61885;53.560;9.940;2023-06-10T01:16:11;14.70;80.80
4673;DHT22;61885;53.560;9.940;2023-06-10T01:18:41;14.70;80.60
4673;DHT22;61885;53.560;9.940;2023-06-10T01:21:19;14.80;80.90
4673;DHT22;61885;53.560;9.940;2023-06-10T01:23:52;14.80;80.40
4673;DHT22;61885;53.560;9.940;2023-06-10T01:26:26;14.90;80.20
4673;DHT22;61885;53.560;9.940;2023-06-10T01:29:01;14.70;80.50
4673;DHT22;61885;53.560;9.940;2023-06-10T01:31:41;14.60;80.70
4673;DHT22;61885;53.560;9.940;2023-06-10T01:34:14;14.60;80.90
4673;DHT22;61885;53.560;9.940;2023-06-10T01:36:47;14.50;81.20
4673;DHT22;61885;53.560;9.940;2023-06-10T01:39:20;14.40;81.50
4673;DHT22;61885;53.560;9.940;2023-06-10T01:41:53;14.40;81.30
4673;DHT22;61885;53.560;9.940;2023-06-10T01:44:23;14.50;81.20
4673;DHT22;61885;53.560;9.940;2023-06-10T01:46:54;14.50;81.00
4673;DHT22;61885;53.560;9.940;2023-06-10T01:49:23;14.40;80.90
4673;DHT22;61885;53.560;9.940;2023-06-10T01:51:57;14.30;81.30
4673;DHT22;61885;53.560;9.940;2023-06-10T01:54:28;14.30;81.40
4673;DHT22;61885;53.560;9.940;2023-06-10T01:56:58;14.30;81.30
4673;DHT22;61885;53.560;9.940;2023-06-10T01:59:28;14.30;81.10
4673;DHT22;61885;53.560;9.940;2023-06-10T02:02:03;14.40;80.90
4673;DHT22;61885;53.560;9.940;2023-06-10T02:04:35;14.40;80.70
4673;DHT22;61885;53.560;9.940;2023-06-10T02:07:07;14.30;81.20
4673;DHT22;61885;53.560;9.940;2023-06-10T02:09:38;14.30;81.30
4673;DHT22;61885;53.560;9.940;2023-06-10T02:12:09;14.30;81.00
4673;DHT22;61885;53.560;9.940;2023-06-10T02:14:38;14.40;80.70
4673;DHT22;61885;53.560;9.940;2023-06-10T02:17:10;14.20;81.10
4673;DHT22;61885;53.560;9.940;2023-06-10T02:19:41;14.10;81.40
4673;DHT22;61885;53.560;9.940;2023-06-10T02:22:23;14.10;81.40
4673;DHT22;61885;53.560;9.940;2023-06-10T02:24:52;14.20;81.20
4673;DHT22;61885;53.560;9.940;2023-06-10T02:27:23;14.20;81.20
4673;DHT22;61885;53.560;9.940;2023-06-10T02:29:53;14.30;80.90
4673;DHT22;61885;53.560;9.940;2023-06-10T02:32:23;14.20;81.00
4673;DHT22;61885;53.560;9.940;2023-06-10T02:34:53;14.30;81.00
4673;DHT22;61885;53.560;9.940;2023-06-10T02:37:26;14.30;80.80
4673;DHT22;61885;53.560;9.940;2023-06-10T02:39:55;14.30;80.60
4673;DHT22;61885;53.560;9.940;2023-06-10T02:42:25;14.30;80.60
4673;DHT22;61885;53.560;9.940;2023-06-10T02:44:54;14.30;80.60
4673;DHT22;61885;53.560;9.940;2023-06-10T02:47:23;14.30;80.30
4673;DHT22;61885;53.560;9.940;2023-06-10T02:49:54;14.30;80.80
4673;DHT22;61885;53.560;9.940;2023-06-10T02:52:26;14.20;80.70
4673;DHT22;61885;53.560;9.940;2023-06-10T02:54:56;14.20;80.70
4673;DHT22;61885;53.560;9.940;2023-06-10T02:57:26;14.20;80.90
4673;DHT22;61885;53.560;9.940;2023-06-10T02:59:55;14.20;80.80
4673;DHT22;61885;53.560;9.940;2023-06-10T03:02:26;14.10;81.10
4673;DHT22;61885;53.560;9.940;2023-06-10T03:04:56;14.30;80.50
4673;DHT22;61885;53.560;9.940;2023-06-10T03:07:28;14.20;80.80
4673;DHT22;61885;53.560;9.940;2023-06-10T03:09:58;14.20;80.70
4673;DHT22;61885;53.560;9.940;2023-06-10T03:12:28;14.20;80.70
4673;DHT22;61885;53.560;9.940;2023-06-10T03:14:57;14.30;80.50
4673;DHT22;61885;53.560;9.940;2023-06-10T03:17:27;14.30;80.60
4673;DHT22;61885;53.560;9.940;2023-06-10T03:19:57;14.20;80.90
4673;DHT22;61885;53.560;9.940;2023-06-10T03:22:29;14.20;80.90
4673;DHT22;61885;53.560;9.940;2023-06-10T03:24:58;14.20;80.90
4673;DHT22;61885;53.560;9.940;2023-06-10T03:27:28;14.20;80.90
4673;DHT22;61885;53.560;9.940;2023-06-10T03:29:58;14.10;81.10
4673;DHT22;61885;53.560;9.940;2023-06-10T03:32:27;14.10;81.40
4673;DHT22;61885;53.560;9.940;2023-06-10T03:34:57;14.10;81.50
4673;DHT22;61885;53.560;9.940;2023-06-10T03:37:29;14.20;81.30
4673;DHT22;61885;53.560;9.940;2023-06-10T03:39:58;14.20;81.30
4673;DHT22;61885;53.560;9.940;2023-06-10T03:42:28;14.20;81.10
4673;DHT22;61885;53.560;9.940;2023-06-10T03:44:59;14.20;81.10
4673;DHT22;61885;53.560;9.940;2023-06-10T03:47:33;14.30;81.20
4673;DHT22;61885;53.560;9.940;2023-06-10T03:50:04;14.20;81.10
4673;DHT22;61885;53.560;9.940;2023-06-10T03:52:38;14.30;81.20
4673;DHT22;61885;53.560;9.940;2023-06-10T03:55:08;14.20;81.20
4673;DHT22;61885;53.560;9.940;2023-06-10T03:57:38;14.10;81.10
4673;DHT22;61885;53.560;9.940;2023-06-10T04:00:10;14.30;81.20
4673;DHT22;61885;53.560;9.940;2023-06-10T04:02:40;14.30;81.20
4673;DHT22;61885;53.560;9.940;2023-06-10T04:05:12;14.40;80.80
4673;DHT22;61885;53.560;9.940;2023-06-10T04:07:44;14.40;80.50
4673;DHT22;61885;53.560;9.940;2023-06-10T04:10:15;14.50;80.60
4673;DHT22;61885;53.560;9.940;2023-06-10T04:12:45;14.30;80.80
4673;DHT22;61885;53.560;9.940;2023-06-10T04:15:14;14.40;80.80
4673;DHT22;61885;53.560;9.940;2023-06-10T04:17:44;14.50;80.60
4673;DHT22;61885;53.560;9.940;2023-06-10T04:20:15;14.50;80.40
4673;DHT22;61885;53.560;9.940;2023-06-10T04:22:47;14.40;80.70
4673;DHT22;61885;53.560;9.940;2023-06-10T04:25:17;14.50;80.60
4673;DHT22;61885;53.560;9.940;2023-06-10T04:27:47;14.70;80.40
4673;DHT22;61885;53.560;9.940;2023-06-10T04:30:16;14.70;80.00
4673;DHT22;61885;53.560;9.940;2023-06-10T04:32:46;14.70;79.90
4673;DHT22;61885;53.560;9.940;2023-06-10T04:35:16;14.70;79.90
4673;DHT22;61885;53.560;9.940;2023-06-10T04:37:49;14.60;80.00
4673;DHT22;61885;53.560;9.940;2023-06-10T04:40:18;14.70;80.30
4673;DHT22;61885;53.560;9.940;2023-06-10T04:42:49;14.60;80.20
4673;DHT22;61885;53.560;9.940;2023-06-10T04:45:19;14.70;80.20
4673;DHT22;61885;53.560;9.940;2023-06-10T04:47:49;14.80;79.90
4673;DHT22;61885;53.560;9.940;2023-06-10T04:50:18;14.90;79.70
4673;DHT22;61885;53.560;9.940;2023-06-10T04:52:50;15.00;79.50
4673;DHT22;61885;53.560;9.940;2023-06-10T04:55:21;15.00;79.40
4673;DHT22;61885;53.560;9.940;2023-06-10T04:57:50;15.00;79.40
4673;DHT22;61885;53.560;9.940;2023-06-10T05:00:20;15.00;79.40
4673;DHT22;61885;53.560;9.940;2023-06-10T05:02:50;15.00;79.40
4673;DHT22;61885;53.560;9.940;2023-06-10T05:05:19;15.00;79.40
4673;DHT22;61885;53.560;9.940;2023-06-10T05:07:51;15.00;79.40
4673;DHT22;61885;53.560;9.940;2023-06-10T05:10:21;15.20;79.40
4673;DHT22;61885;53.560;9.940;2023-06-10T05:12:51;15.20;79.20
4673;DHT22;61885;53.560;9.940;2023-06-10T05:15:20;15.20;79.30
4673;DHT22;61885;53.560;9.940;2023-06-10T05:17:50;15.20;79.40
4673;DHT22;61885;53.560;9.940;2023-06-10T05:20:19;15.20;79.40
4673;DHT22;61885;53.560;9.940;2023-06-10T05:22:51;15.40;78.60
4673;DHT22;61885;53.560;9.940;2023-06-10T05:25:21;15.40;78.30
4673;DHT22;61885;53.560;9.940;2023-06-10T05:27:50;15.60;78.20
4673;DHT22;61885;53.560;9.940;2023-06-10T05:30:20;15.60;78.20
4673;DHT22;61885;53.560;9.940;2023-06-10T05:32:52;15.60;77.70
4673;DHT22;61885;53.560;9.940;2023-06-10T05:35:22;15.70;77.60
4673;DHT22;61885;53.560;9.940;2023-06-10T05:37:55;15.70;77.70
4673;DHT22;61885;53.560;9.940;2023-06-10T05:40:24;15.90;77.50
4673;DHT22;61885;53.560;9.940;2023-06-10T05:42:54;15.90;77.10
4673;DHT22;61885;53.560;9.940;2023-06-10T05:45:24;16.00;76.70
4673;DHT22;61885;53.560;9.940;2023-06-10T05:47:53;15.90;76.80
4673;DHT22;61885;53.560;9.940;2023-06-10T05:50:24;15.90;76.70
4673;DHT22;61885;53.560;9.940;2023-06-10T05:52:56;16.00;76.50
4673;DHT22;61885;53.560;9.940;2023-06-10T05:55:25;16.20;76.60
4673;DHT22;61885;53.560;9.940;2023-06-10T05:58:01;16.20;76.00
4673;DHT22;61885;53.560;9.940;2023-06-10T06:00:30;16.20;76.00
4673;DHT22;61885;53.560;9.940;2023-06-10T06:03:01;16.40;75.80
4673;DHT22;61885;53.560;9.940;2023-06-10T06:05:31;16.40;76.00
4673;DHT22;61885;53.560;9.940;2023-06-10T06:08:04;16.40;75.70
4673;DHT22;61885;53.560;9.940;2023-06-10T06:10:34;16.40;75.90
4673;DHT22;61885;53.560;9.940;2023-06-10T06:13:04;16.40;75.70
4673;DHT22;61885;53.560;9.940;2023-06-10T06:15:33;16.60;75.50
4673;DHT22;61885;53.560;9.940;2023-06-10T06:18:03;16.50;75.60
4673;DHT22;61885;53.560;9.940;2023-06-10T06:20:32;16.50;75.70
4673;DHT22;61885;53.560;9.940;2023-06-10T06:23:04;16.60;75.50
4673;DHT22;61885;53.560;9.940;2023-06-10T06:25:36;16.80;75.10
4673;DHT22;61885;53.560;9.940;2023-06-10T06:28:06;16.80;74.70
4673;DHT22;61885;53.560;9.940;2023-06-10T06:30:36;16.80;74.80
4673;DHT22;61885;53.560;9.940;2023-06-10T06:33:05;16.80;74.80
4673;DHT22;61885;53.560;9.940;2023-06-10T06:35:34;16.90;74.70
4673;DHT22;61885;53.560;9.940;2023-06-10T06:38:07;17.00;74.30
4673;DHT22;61885;53.560;9.940;2023-06-10T06:40:36;17.00;73.90
4673;DHT22;61885;53.560;9.940;2023-06-10T06:43:06;17.10;74.10
4673;DHT22;61885;53.560;9.940;2023-06-10T06:45:36;17.20;73.60
4673;DHT22;61885;53.560;9.940;2023-06-10T06:48:05;17.20;73.40
4673;DHT22;61885;53.560;9.940;2023-06-10T06:50:35;17.20;73.30
4673;DHT22;61885;53.560;9.940;2023-06-10T06:53:07;17.30;73.30
4673;DHT22;61885;53.560;9.940;2023-06-10T06:55:37;17.20;73.60
4673;DHT22;61885;53.560;9.940;2023-06-10T06:58:06;17.40;73.20
4673;DHT22;61885;53.560;9.940;2023-06-10T07:00:36;17.40;72.90
4673;DHT22;61885;53.560;9.940;2023-06-10T07:03:05;17.50;72.70
4673;DHT22;61885;53.560;9.940;2023-06-10T07:05:35;17.60;72.50
4673;DHT22;61885;53.560;9.940;2023-06-10T07:08:08;17.70;72.30
4673;DHT22;61885;53.560;9.940;2023-06-10T07:10:38;17.80;71.90
4673;DHT22;61885;53.560;9.940;2023-06-10T07:13:08;17.80;72.20
4673;DHT22;61885;53.560;9.940;2023-06-10T07:15:38;17.90;72.00
4673;DHT22;61885;53.560;9.940;2023-06-10T07:18:08;18.20;70.70
4673;DHT22;61885;53.560;9.940;2023-06-10T07:20:37;18.20;70.40
4673;DHT22;61885;53.560;9.940;2023-06-10T07:23:10;18.30;70.60
4673;DHT22;61885;53.560;9.940;2023-06-10T07:25:41;18.30;70.70
4673;DHT22;61885;53.560;9.940;2023-06-10T07:28:10;18.30;70.30
4673;DHT22;61885;53.560;9.940;2023-06-10T07:30:39;18.60;69.90
4673;DHT22;61885;53.560;9.940;2023-06-10T07:33:09;18.70;69.10
4673;DHT22;61885;53.560;9.940;2023-06-10T07:35:38;18.80;69.40
4673;DHT22;61885;53.560;9.940;2023-06-10T07:38:12;18.80;69.30
4673;DHT22;61885;53.560;9.940;2023-06-10T07:40:41;18.90;68.90
4673;DHT22;61885;53.560;9.940;2023-06-10T07:43:13;18.90;68.70
4673;DHT22;61885;53.560;9.940;2023-06-10T07:45:42;19.00;67.90
4673;DHT22;61885;53.560;9.940;2023-06-10T07:48:12;19.00;68.10
4673;DHT22;61885;53.560;9.940;2023-06-10T07:50:41;19.00;68.30
4673;DHT22;61885;53.560;9.940;2023-06-10T07:53:16;19.00;68.00
4673;DHT22;61885;53.560;9.940;2023-06-10T07:55:46;19.00;68.20
4673;DHT22;61885;53.560;9.940;2023-06-10T07:58:15;18.90;68.20
4673;DHT22;61885;53.560;9.940;2023-06-10T08:00:46;19.10;67.90
4673;DHT22;61885;53.560;9.940;2023-06-10T08:03:15;19.20;67.60
4673;DHT22;61885;53.560;9.940;2023-06-10T08:05:46;19.20;67.50
4673;DHT22;61885;53.560;9.940;2023-06-10T08:08:19;19.40;67.20
4673;DHT22;61885;53.560;9.940;2023-06-10T08:10:48;19.30;67.40
4673;DHT22;61885;53.560;9.940;2023-06-10T08:13:24;19.40;67.40
4673;DHT22;61885;53.560;9.940;2023-06-10T08:15:55;19.60;66.90
4673;DHT22;61885;53.560;9.940;2023-06-10T08:18:25;19.60;66.40
4673;DHT22;61885;53.560;9.940;2023-06-10T08:20:54;19.60;66.50
4673;DHT22;61885;53.560;9.940;2023-06-10T08:23:26;19.60;66.30
4673;DHT22;61885;53.560;9.940;2023-06-10T08:25:56;19.70;66.20
4673;DHT22;61885;53.560;9.940;2023-06-10T08:28:25;19.80;66.20
4673;DHT22;61885;53.560;9.940;2023-06-10T08:30:55;19.90;66.40
4673;DHT22;61885;53.560;9.940;2023-06-10T08:33:24;20.00;66.00
4673;DHT22;61885;53.560;9.940;2023-06-10T08:35:54;20.10;65.70
4673;DHT22;61885;53.560;9.940;2023-06-10T08:38:26;20.20;65.40
4673;DHT22;61885;53.560;9.940;2023-06-10T08:40:59;20.30;65.30
4673;DHT22;61885;53.560;9.940;2023-06-10T08:43:33;20.30;64.60
4673;DHT22;61885;53.560;9.940;2023-06-10T08:46:03;20.40;64.50
4673;DHT22;61885;53.560;9.940;2023-06-10T08:48:35;20.40;64.60
4673;DHT22;61885;53.560;9.940;2023-06-10T08:51:07;20.40;64.70
4673;DHT22;61885;53.560;9.940;2023-06-10T08:53:48;20.20;65.30
4673;DHT22;61885;53.560;9.940;2023-06-10T08:56:19;20.40;65.10
4673;DHT22;61885;53.560;9.940;2023-06-10T08:58:50;20.50;64.80
4673;DHT22;61885;53.560;9.940;2023-06-10T09:01:20;20.60;64.80
4673;DHT22;61885;53.560;9.940;2023-06-10T09:03:50;20.70;64.10
4673;DHT22;61885;53.560;9.940;2023-06-10T09:06:19;20.80;63.70
4673;DHT22;61885;53.560;9.940;2023-06-10T09:08:52;20.80;63.40
4673;DHT22;61885;53.560;9.940;2023-06-10T09:11:22;20.80;63.60
4673;DHT22;61885;53.560;9.940;2023-06-10T09:13:52;20.70;64.10
4673;DHT22;61885;53.560;9.940;2023-06-10T09:16:21;20.70;64.50
4673;DHT22;61885;53.560;9.940;2023-06-10T09:18:51;20.90;63.90
4673;DHT22;61885;53.560;9.940;2023-06-10T09:21:22;21.00;63.20
4673;DHT22;61885;53.560;9.940;2023-06-10T09:23:54;21.20;62.70
4673;DHT22;61885;53.560;9.940;2023-06-10T09:26:28;21.50;62.10
4673;DHT22;61885;53.560;9.940;2023-06-10T09:29:03;21.70;61.50
4673;DHT22;61885;53.560;9.940;2023-06-10T09:31:36;21.60;61.70
4673;DHT22;61885;53.560;9.940;2023-06-10T09:34:07;21.60;61.50
4673;DHT22;61885;53.560;9.940;2023-06-10T09:36:38;21.70;61.50
4673;DHT22;61885;53.560;9.940;2023-06-10T09:39:18;21.90;61.70
4673;DHT22;61885;53.560;9.940;2023-06-10T09:41:48;21.80;61.40
4673;DHT22;61885;53.560;9.940;2023-06-10T09:44:19;21.90;61.30
4673;DHT22;61885;53.560;9.940;2023-06-10T09:46:51;22.00;61.20
4673;DHT22;61885;53.560;9.940;2023-06-10T09:49:21;22.20;60.60
4673;DHT22;61885;53.560;9.940;2023-06-10T09:51:51;22.40;60.10
4673;DHT22;61885;53.560;9.940;2023-06-10T09:54:31;22.40;59.80
4673;DHT22;61885;53.560;9.940;2023-06-10T09:57:07;22.50;59.60
4673;DHT22;61885;53.560;9.940;2023-06-10T09:59:37;22.60;59.00
4673;DHT22;61885;53.560;9.940;2023-06-10T10:02:13;22.60;59.10
4673;DHT22;61885;53.560;9.940;2023-06-10T10:04:43;22.60;59.30
4673;DHT22;61885;53.560;9.940;2023-06-10T10:07:13;22.60;59.10
4673;DHT22;61885;53.560;9.940;2023-06-10T10:09:46;22.60;59.50
4673;DHT22;61885;53.560;9.940;2023-06-10T10:12:16;22.60;59.80
4673;DHT22;61885;53.560;9.940;2023-06-10T10:14:47;22.70;59.50
4673;DHT22;61885;53.560;9.940;2023-06-10T10:17:17;22.70;59.00
4673;DHT22;61885;53.560;9.940;2023-06-10T10:19:53;23.00;58.80
4673;DHT22;61885;53.560;9.940;2023-06-10T10:22:26;23.00;58.00
4673;DHT22;61885;53.560;9.940;2023-06-10T10:25:01;23.10;58.00
4673;DHT22;61885;53.560;9.940;2023-06-10T10:27:35;23.30;57.20
4673;DHT22;61885;53.560;9.940;2023-06-10T10:30:07;23.30;57.10
4673;DHT22;61885;53.560;9.940;2023-06-10T10:32:43;23.40;57.20
4673;DHT22;61885;53.560;9.940;2023-06-10T10:35:17;23.50;57.50
4673;DHT22;61885;53.560;9.940;2023-06-10T10:37:48;23.40;57.50
4673;DHT22;61885;53.560;9.940;2023-06-10T10:40:21;23.50;57.20
4673;DHT22;61885;53.560;9.940;2023-06-10T10:42:51;23.60;57.40
4673;DHT22;61885;53.560;9.940;2023-06-10T10:45:22;23.70;56.70
4673;DHT22;61885;53.560;9.940;2023-06-10T10:47:52;23.50;57.30
4673;DHT22;61885;53.560;9.940;2023-06-10T10:50:24;23.70;57.50
4673;DHT22;61885;53.560;9.940;2023-06-10T10:53:02;23.80;57.30
4673;DHT22;61885;53.560;9.940;2023-06-10T10:55:34;23.90;57.20
4673;DHT22;61885;53.560;9.940;2023-06-10T10:58:06;23.90;57.10
4673;DHT22;61885;53.560;9.940;2023-06-10T11:00:43;23.90;57.00
4673;DHT22;61885;53.560;9.940;2023-06-10T11:03:16;24.10;56.90
4673;DHT22;61885;53.560;9.940;2023-06-10T11:05:49;24.20;55.90
4673;DHT22;61885;53.560;9.940;2023-06-10T11:08:46;24.30;56.40
4673;DHT22;61885;53.560;9.940;2023-06-10T11:11:23;24.40;56.00
4673;DHT22;61885;53.560;9.940;2023-06-10T11:14:07;24.40;56.10
4673;DHT22;61885;53.560;9.940;2023-06-10T11:16:42;24.70;55.50
4673;DHT22;61885;53.560;9.940;2023-06-10T11:19:31;24.80;54.90
4673;DHT22;61885;53.560;9.940;2023-06-10T11:22:02;24.90;54.40
4673;DHT22;61885;53.560;9.940;2023-06-10T11:24:32;24.90;54.10
4673;DHT22;61885;53.560;9.940;2023-06-10T11:27:20;25.00;54.60
4673;DHT22;61885;53.560;9.940;2023-06-10T11:30:18;25.40;53.80
4673;DHT22;61885;53.560;9.940;2023-06-10T11:32:51;25.60;53.00
4673;DHT22;61885;53.560;9.940;2023-06-10T11:35:23;25.80;52.10
4673;DHT22;61885;53.560;9.940;2023-06-10T11:37:54;25.90;52.20
4673;DHT22;61885;53.560;9.940;2023-06-10T11:40:24;26.00;52.00
4673;DHT22;61885;53.560;9.940;2023-06-10T11:42:56;26.50;51.30
4673;DHT22;61885;53.560;9.940;2023-06-10T11:45:27;26.70;51.20
4673;DHT22;61885;53.560;9.940;2023-06-10T11:47:57;27.40;49.90
4673;DHT22;61885;53.560;9.940;2023-06-10T11:50:31;27.70;49.50
4673;DHT22;61885;53.560;9.940;2023-06-10T11:53:01;28.00;49.00
4673;DHT22;61885;53.560;9.940;2023-06-10T11:55:45;29.00;47.10
4673;DHT22;61885;53.560;9.940;2023-06-10T11:58:19;29.40;46.20
4673;DHT22;61885;53.560;9.940;2023-06-10T12:00:50;29.90;45.20
4673;DHT22;61885;53.560;9.940;2023-06-10T12:03:20;30.40;44.50
4673;DHT22;61885;53.560;9.940;2023-06-10T12:05:56;30.30;44.70
4673;DHT22;61885;53.560;9.940;2023-06-10T12:08:27;29.50;46.30
4673;DHT22;61885;53.560;9.940;2023-06-10T12:10:57;30.50;44.50
4673;DHT22;61885;53.560;9.940;2023-06-10T12:13:29;31.20;43.50
4673;DHT22;61885;53.560;9.940;2023-06-10T12:16:07;29.90;45.20
4673;DHT22;61885;53.560;9.940;2023-06-10T12:18:36;29.50;46.40
4673;DHT22;61885;53.560;9.940;2023-06-10T12:21:16;29.70;46.30
4673;DHT22;61885;53.560;9.940;2023-06-10T12:24:04;30.20;45.40
4673;DHT22;61885;53.560;9.940;2023-06-10T12:26:36;30.10;45.60
4673;DHT22;61885;53.560;9.940;2023-06-10T12:29:22;29.90;45.80
4673;DHT22;61885;53.560;9.940;2023-06-10T12:31:56;29.90;45.70
4673;DHT22;61885;53.560;9.940;2023-06-10T12:34:31;29.70;45.30
4673;DHT22;61885;53.560;9.940;2023-06-10T12:37:01;28.70;46.90
4673;DHT22;61885;53.560;9.940;2023-06-10T12:39:31;27.90;48.70
4673;DHT22;61885;53.560;9.940;2023-06-10T12:42:01;28.20;48.50
4673;DHT22;61885;53.560;9.940;2023-06-10T12:44:39;28.50;48.20
4673;DHT22;61885;53.560;9.940;2023-06-10T12:47:11;28.70;47.30
4673;DHT22;61885;53.560;9.940;2023-06-10T12:49:44;28.70;47.20
4673;DHT22;61885;53.560;9.940;2023-06-10T12:52:15;29.00;46.50
4673;DHT22;61885;53.560;9.940;2023-06-10T12:54:45;28.80;46.90
4673;DHT22;61885;53.560;9.940;2023-06-10T12:57:15;28.50;47.60
4673;DHT22;61885;53.560;9.940;2023-06-10T12:59:47;28.20;48.00
4673;DHT22;61885;53.560;9.940;2023-06-10T13:02:19;28.40;48.10
4673;DHT22;61885;53.560;9.940;2023-06-10T13:04:50;28.60;47.40
4673;DHT22;61885;53.560;9.940;2023-06-10T13:07:20;28.70;47.10
4673;DHT22;61885;53.560;9.940;2023-06-10T13:09:50;28.60;47.20
4673;DHT22;61885;53.560;9.940;2023-06-10T13:12:19;28.50;47.30
4673;DHT22;61885;53.560;9.940;2023-06-10T13:14:51;28.70;46.90
4673;DHT22;61885;53.560;9.940;2023-06-10T13:17:21;28.70;47.20
4673;DHT22;61885;53.560;9.940;2023-06-10T13:19:51;28.60;46.80
4673;DHT22;61885;53.560;9.940;2023-06-10T13:22:22;28.40;47.40
4673;DHT22;61885;53.560;9.940;2023-06-10T13:24:53;28.50;47.70
4673;DHT22;61885;53.560;9.940;2023-06-10T13:27:24;28.40;48.10
4673;DHT22;61885;53.560;9.940;2023-06-10T13:29:56;28.80;47.40
4673;DHT22;61885;53.560;9.940;2023-06-10T13:32:25;29.10;46.60
4673;DHT22;61885;53.560;9.940;2023-06-10T13:34:55;28.70;47.30
4673;DHT22;61885;53.560;9.940;2023-06-10T13:37:24;28.60;47.60
4673;DHT22;61885;53.560;9.940;2023-06-10T13:39:54;28.70;46.60
4673;DHT22;61885;53.560;9.940;2023-06-10T13:42:27;29.00;46.70
4673;DHT22;61885;53.560;9.940;2023-06-10T13:44:59;28.70;47.40
4673;DHT22;61885;53.560;9.940;2023-06-10T13:47:29;28.80;48.20
4673;DHT22;61885;53.560;9.940;2023-06-10T13:49:58;29.30;47.40
4673;DHT22;61885;53.560;9.940;2023-06-10T13:52:28;29.50;47.10
4673;DHT22;61885;53.560;9.940;2023-06-10T13:54:57;29.50;47.10
4673;DHT22;61885;53.560;9.940;2023-06-10T13:57:27;29.40;47.20
4673;DHT22;61885;53.560;9.940;2023-06-10T13:59:59;29.50;47.10
4673;DHT22;61885;53.560;9.940;2023-06-10T14:02:33;29.30;47.80
4673;DHT22;61885;53.560;9.940;2023-06-10T14:05:03;29.40;47.70
4673;DHT22;61885;53.560;9.940;2023-06-10T14:07:34;29.60;47.70
4673;DHT22;61885;53.560;9.940;2023-06-10T14:10:05;29.50;47.90
4673;DHT22;61885;53.560;9.940;2023-06-10T14:12:38;29.50;48.20
4673;DHT22;61885;53.560;9.940;2023-06-10T14:15:13;29.50;48.10
4673;DHT22;61885;53.560;9.940;2023-06-10T14:17:43;29.30;48.70
4673;DHT22;61885;53.560;9.940;2023-06-10T14:20:15;29.10;49.10
4673;DHT22;61885;53.560;9.940;2023-06-10T14:22:44;29.20;49.00
4673;DHT22;61885;53.560;9.940;2023-06-10T14:25:14;29.10;49.30
4673;DHT22;61885;53.560;9.940;2023-06-10T14:27:44;29.30;48.60
4673;DHT22;61885;53.560;9.940;2023-06-10T14:30:17;29.40;48.60
4673;DHT22;61885;53.560;9.940;2023-06-10T14:32:46;29.50;48.20
4673;DHT22;61885;53.560;9.940;2023-06-10T14:35:16;29.70;47.50
4673;DHT22;61885;53.560;9.940;2023-06-10T14:37:46;29.70;47.10
4673;DHT22;61885;53.560;9.940;2023-06-10T14:40:16;29.70;47.70
4673;DHT22;61885;53.560;9.940;2023-06-10T14:42:47;29.70;47.10
4673;DHT22;61885;53.560;9.940;2023-06-10T14:45:20;29.70;47.10
4673;DHT22;61885;53.560;9.940;2023-06-10T14:47:51;29.30;48.50
4673;DHT22;61885;53.560;9.940;2023-06-10T14:50:20;29.30;48.50
4673;DHT22;61885;53.560;9.940;2023-06-10T14:52:51;29.60;48.10
4673;DHT22;61885;53.560;9.940;2023-06-10T14:55:20;29.50;47.10
4673;DHT22;61885;53.560;9.940;2023-06-10T14:57:50;29.70;47.50
4673;DHT22;61885;53.560;9.940;2023-06-10T15:00:24;29.40;48.10
4673;DHT22;61885;53.560;9.940;2023-06-10T15:02:54;29.00;48.40
4673;DHT22;61885;53.560;9.940;2023-06-10T15:05:24;29.30;48.50
4673;DHT22;61885;53.560;9.940;2023-06-10T15:07:54;29.80;47.10
4673;DHT22;61885;53.560;9.940;2023-06-10T15:10:26;30.10;46.30
4673;DHT22;61885;53.560;9.940;2023-06-10T15:12:58;30.20;45.80
4673;DHT22;61885;53.560;9.940;2023-06-10T15:15:30;31.30;44.00
4673;DHT22;61885;53.560;9.940;2023-06-10T15:18:00;32.20;43.10
4673;DHT22;61885;53.560;9.940;2023-06-10T15:20:30;32.90;41.70
4673;DHT22;61885;53.560;9.940;2023-06-10T15:23:03;33.20;41.00
4673;DHT22;61885;53.560;9.940;2023-06-10T15:25:34;33.40;40.50
4673;DHT22;61885;53.560;9.940;2023-06-10T15:28:04;33.60;40.60
4673;DHT22;61885;53.560;9.940;2023-06-10T15:30:36;33.20;40.80
4673;DHT22;61885;53.560;9.940;2023-06-10T15:33:06;33.40;40.40
4673;DHT22;61885;53.560;9.940;2023-06-10T15:35:35;34.00;39.50
4673;DHT22;61885;53.560;9.940;2023-06-10T15:38:05;34.90;38.70
4673;DHT22;61885;53.560;9.940;2023-06-10T15:40:34;34.90;38.30
4673;DHT22;61885;53.560;9.940;2023-06-10T15:43:06;35.00;38.20
4673;DHT22;61885;53.560;9.940;2023-06-10T15:45:38;35.00;38.10
4673;DHT22;61885;53.560;9.940;2023-06-10T15:48:08;34.40;38.50
4673;DHT22;61885;53.560;9.940;2023-06-10T15:50:38;34.30;39.00
4673;DHT22;61885;53.560;9.940;2023-06-10T15:53:07;35.20;37.80
4673;DHT22;61885;53.560;9.940;2023-06-10T15:55:39;35.20;38.00
4673;DHT22;61885;53.560;9.940;2023-06-10T15:58:09;35.70;37.30
4673;DHT22;61885;53.560;9.940;2023-06-10T16:00:41;34.40;38.50
4673;DHT22;61885;53.560;9.940;2023-06-10T16:03:11;34.60;38.40
4673;DHT22;61885;53.560;9.940;2023-06-10T16:05:40;34.70;38.00
4673;DHT22;61885;53.560;9.940;2023-06-10T16:08:10;34.80;38.40
4673;DHT22;61885;53.560;9.940;2023-06-10T16:10:39;35.00;38.00